Kagamaru — JD3049 — position and weather

sailwx.info

Track history (hours):
 
Tides and Currents Weather Stations Pressure Air Temp Water Temp Dewpoint Dewpoint Depression Visibility Wind Speed Wind Dir Waves Ship Positions

Kagamaru

Last reported at 2017-Feb-25 06:34 UTC. Time now 2017-Feb-25 07:22 UTC.
Position N 35°27' E 139°39'.

Length 34 m; draft 3.6 m.

Type: Tug. MMSI: 431001272.

Date/timePositionNaut miles runAvg speedWind from/ knotsBaromVisibWave heightAir tempDewpointWater temp
2017-Feb-25 06:34N 35°27' E 139°39'0 0.0
2017-Feb-25 05:34N 35°27' E 139°39'0 0.0
2017-Feb-25 04:34N 35°27' E 139°39'1 1.3
2017-Feb-25 03:33N 35°27' E 139°41'1 1.3
2017-Feb-25 02:34N 35°27' E 139°39'0 0.0
2017-Feb-25 01:34N 35°27' E 139°39'0 0.3
2017-Feb-25 00:34N 35°27' E 139°39'0 0.0
2017-Feb-24 23:34N 35°27' E 139°39'4 3.7
2017-Feb-24 22:34N 35°29' E 139°43'1 1.3
2017-Feb-24 21:34N 35°28' E 139°42'3 2.8
2017-Feb-24 20:34N 35°27' E 139°39'0 0.0
2017-Feb-24 19:34N 35°27' E 139°39'0 0.0
2017-Feb-24 18:33N 35°27' E 139°39'0 0.0
2017-Feb-24 17:34N 35°27' E 139°39'0 0.0
2017-Feb-24 16:34N 35°27' E 139°39'0 0.0
2017-Feb-24 15:34N 35°27' E 139°39'0 0.0
2017-Feb-24 14:34N 35°27' E 139°39'0 0.0
2017-Feb-24 13:34N 35°27' E 139°39'0 0.0
2017-Feb-24 12:34N 35°27' E 139°39'0 0.0
2017-Feb-24 11:34N 35°27' E 139°39'0 0.0
2017-Feb-24 10:34N 35°27' E 139°39'0 0.0
2017-Feb-24 09:34N 35°27' E 139°39'2 1.6
2017-Feb-24 08:34N 35°27' E 139°41'1110.9
2017-Feb-24 07:33N 35°29' E 139°54'2 1.1
2017-Feb-24 05:23N 35°29' E 139°57'4 4.9
2017-Feb-24 04:33N 35°28' E 139°53'7 7.0
2017-Feb-24 03:33N 35°28' E 139°44'0 0.0
2017-Feb-24 02:34N 35°28' E 139°44'2 2.2
2017-Feb-24 01:33N 35°26' E 139°44'5 5.0
2017-Feb-24 00:34N 35°24' E 139°38'3 3.2
2017-Feb-23 23:34N 35°25' E 139°42'3 2.8
2017-Feb-23 22:34N 35°27' E 139°39'0 0.0
2017-Feb-23 21:34N 35°27' E 139°39'0 0.0
2017-Feb-23 20:33N 35°27' E 139°39'0 0.0
2017-Feb-23 19:34N 35°27' E 139°39'0 0.0
2017-Feb-23 18:34N 35°27' E 139°39'0 0.0
2017-Feb-23 17:34N 35°27' E 139°39'0 0.0
2017-Feb-23 16:34N 35°27' E 139°39'0 0.0
2017-Feb-23 15:34N 35°27' E 139°39'0 0.0
2017-Feb-23 14:34N 35°27' E 139°39'0 0.0
2017-Feb-23 13:34N 35°27' E 139°39'0 0.0
2017-Feb-23 12:34N 35°27' E 139°39'0 0.0
2017-Feb-23 11:34N 35°27' E 139°39'0 0.0
2017-Feb-23 10:34N 35°27' E 139°39'6 6.4
2017-Feb-23 09:34N 35°30' E 139°46'0 0.2
2017-Feb-23 08:33N 35°30' E 139°46'0 0.0
2017-Feb-23 07:34N 35°30' E 139°46'1 1.0
2017-Feb-23 06:34N 35°30' E 139°45'4 3.9
2017-Feb-23 05:33N 35°28' E 139°41'2 1.6
2017-Feb-23 04:33N 35°27' E 139°39'0 0.0
2017-Feb-23 03:34N 35°27' E 139°39'0 0.0
2017-Feb-23 02:34N 35°27' E 139°39'0 0.0
2017-Feb-23 01:33N 35°27' E 139°39'0 0.0
2017-Feb-23 00:33N 35°27' E 139°39'0 0.0
2017-Feb-22 23:34N 35°27' E 139°39'0 0.0
2017-Feb-22 22:34N 35°27' E 139°39'0 0.0
2017-Feb-22 21:33N 35°27' E 139°39'0 0.0
2017-Feb-22 20:33N 35°27' E 139°39'0 0.0
2017-Feb-22 19:34N 35°27' E 139°39'0 0.0
2017-Feb-22 18:34N 35°27' E 139°39'0 0.0
2017-Feb-22 17:33N 35°27' E 139°39'0 0.0
2017-Feb-22 16:34N 35°27' E 139°39'0 0.0
2017-Feb-22 15:34N 35°27' E 139°39'0 0.0
2017-Feb-22 14:33N 35°27' E 139°39'0 0.0
2017-Feb-22 13:33N 35°27' E 139°39'0 0.0
2017-Feb-22 12:33N 35°27' E 139°39'0 0.0
2017-Feb-22 11:34N 35°27' E 139°39'0 0.0
2017-Feb-22 10:34N 35°27' E 139°39'0 0.0
2017-Feb-22 09:34N 35°27' E 139°39'0 0.0
2017-Feb-22 08:34N 35°27' E 139°39'0 0.0
2017-Feb-22 07:34N 35°27' E 139°39'0 0.0
2017-Feb-22 06:34N 35°27' E 139°39'0 0.0
2017-Feb-22 05:34N 35°27' E 139°39'0 0.0
2017-Feb-22 04:33N 35°27' E 139°39'0 0.0
2017-Feb-22 03:34N 35°27' E 139°39'0 0.0
2017-Feb-22 02:34N 35°27' E 139°39'0 0.0
2017-Feb-22 01:34N 35°27' E 139°39'0 0.0
2017-Feb-22 00:34N 35°27' E 139°39'1 1.0
2017-Feb-21 23:34N 35°27' E 139°40'2 2.0
2017-Feb-21 22:34N 35°25' E 139°42'0 0.0
2017-Feb-21 21:34N 35°25' E 139°41'2 1.8
2017-Feb-21 20:34N 35°24' E 139°41'0 0.5
2017-Feb-21 19:34N 35°24' E 139°41'1 1.0
2017-Feb-21 18:34N 35°23' E 139°40'0 0.0
2017-Feb-21 17:34N 35°23' E 139°40'0 0.0
2017-Feb-21 16:34N 35°23' E 139°40'0 0.0
2017-Feb-21 15:34N 35°23' E 139°40'0 0.0
2017-Feb-21 14:34N 35°23' E 139°40'0 0.2
2017-Feb-21 13:34N 35°24' E 139°40'3 2.8
2017-Feb-21 12:33N 35°26' E 139°42'0 0.4
2017-Feb-21 11:34N 35°26' E 139°42'1 0.6
2017-Feb-21 10:33N 35°26' E 139°41'0 0.0
2017-Feb-21 09:34N 35°26' E 139°41'2 1.5
2017-Feb-21 08:33N 35°27' E 139°39'2 1.7
2017-Feb-21 07:34N 35°29' E 139°39'4 4.4
2017-Feb-21 06:34N 35°25' E 139°43'3 3.2
2017-Feb-21 05:34N 35°27' E 139°39'0 0.0
2017-Feb-21 04:34N 35°27' E 139°39'0 0.0
2017-Feb-21 03:34N 35°27' E 139°39'1 0.9
2017-Feb-21 02:34N 35°26' E 139°40'1 0.9
2017-Feb-21 01:33N 35°27' E 139°39'0 0.0
2017-Feb-21 00:34N 35°27' E 139°39'1 1.2
2017-Feb-20 23:34N 35°27' E 139°41'3 3.3
2017-Feb-20 22:34N 35°24' E 139°41'1 1.0
2017-Feb-20 21:34N 35°24' E 139°42'3 3.2
2017-Feb-20 20:34N 35°27' E 139°39'0 0.0
2017-Feb-20 19:33N 35°27' E 139°39'0 0.0
2017-Feb-20 18:34N 35°27' E 139°39'0 0.0
2017-Feb-20 17:34N 35°27' E 139°39'0 0.0
2017-Feb-20 16:34N 35°27' E 139°39'0 0.0
2017-Feb-20 15:34N 35°27' E 139°39'0 0.0
2017-Feb-20 14:33N 35°27' E 139°39'0 0.0
2017-Feb-20 13:34N 35°27' E 139°39'0 0.0
2017-Feb-20 12:33N 35°27' E 139°39'0 0.0
2017-Feb-20 11:34N 35°27' E 139°39'0 0.0
2017-Feb-20 10:34N 35°27' E 139°39'0 0.0
2017-Feb-20 09:34N 35°27' E 139°39'0 0.0
2017-Feb-20 08:34N 35°27' E 139°39'0 0.0
2017-Feb-20 07:33N 35°27' E 139°39'0 0.0
2017-Feb-20 06:33N 35°27' E 139°39'0 0.0
2017-Feb-20 05:34N 35°27' E 139°39'0 0.0
2017-Feb-20 04:34N 35°27' E 139°39'0 0.0
2017-Feb-20 03:33N 35°27' E 139°39'0 0.0
2017-Feb-20 02:34N 35°27' E 139°39'0 0.0
2017-Feb-20 01:34N 35°27' E 139°39'5 4.7
2017-Feb-20 00:34N 35°28' E 139°45'2 2.2
2017-Feb-19 23:29N 35°28' E 139°48'5 5.1
2017-Feb-19 22:34N 35°27' E 139°42'2 2.3
2017-Feb-19 21:34N 35°27' E 139°39'0 0.0
2017-Feb-19 20:34N 35°27' E 139°39'0 0.0
2017-Feb-19 19:34N 35°27' E 139°39'0 0.0
2017-Feb-19 18:33N 35°27' E 139°39'0 0.0
2017-Feb-19 17:34N 35°27' E 139°39'0 0.0
2017-Feb-19 16:34N 35°27' E 139°39'0 0.0
2017-Feb-19 15:34N 35°27' E 139°39'0 0.0
2017-Feb-19 14:34N 35°27' E 139°39'0 0.0
2017-Feb-19 13:34N 35°27' E 139°39'0 0.0
2017-Feb-19 12:34N 35°27' E 139°39'0 0.0
2017-Feb-19 11:34N 35°27' E 139°39'0 0.0
2017-Feb-19 10:34N 35°27' E 139°39'0 0.0
2017-Feb-19 09:34N 35°27' E 139°39'0 0.0
2017-Feb-19 08:34N 35°27' E 139°39'0 0.0
2017-Feb-19 07:33N 35°27' E 139°39'0 0.0
2017-Feb-19 06:34N 35°27' E 139°39'0 0.0
2017-Feb-19 05:34N 35°27' E 139°39'0 0.0
2017-Feb-19 04:34N 35°27' E 139°39'0 0.0
2017-Feb-19 03:34N 35°27' E 139°39'0 0.0
2017-Feb-19 02:34N 35°27' E 139°39'0 0.0
2017-Feb-19 01:33N 35°27' E 139°39'0 0.0
2017-Feb-19 00:34N 35°27' E 139°39'0 0.0
2017-Feb-18 23:34N 35°27' E 139°39'2 2.3
2017-Feb-18 22:34N 35°27' E 139°42'1 0.5
2017-Feb-18 21:34N 35°27' E 139°42'0 0.0
2017-Feb-18 20:34N 35°27' E 139°42'1 0.7
2017-Feb-18 19:34N 35°28' E 139°42'1 0.8
2017-Feb-18 18:34N 35°27' E 139°42'1 0.8
2017-Feb-18 17:34N 35°27' E 139°41'1 0.8
2017-Feb-18 16:34N 35°27' E 139°42'0 0.0
2017-Feb-18 15:34N 35°27' E 139°42'1 1.1
2017-Feb-18 14:34N 35°27' E 139°41'1 0.7
2017-Feb-18 13:34N 35°26' E 139°42'0 0.0
2017-Feb-18 12:34N 35°26' E 139°42'1 0.6
2017-Feb-18 11:33N 35°26' E 139°41'1 1.2
2017-Feb-18 10:34N 35°27' E 139°42'1 0.8
2017-Feb-18 09:34N 35°28' E 139°42'1 0.9
2017-Feb-18 08:34N 35°27' E 139°42'3 3.0
2017-Feb-18 07:34N 35°29' E 139°45'1 1.1
2017-Feb-18 06:33N 35°28' E 139°44'5 5.1
2017-Feb-18 05:33N 35°24' E 139°41'1 0.6
2017-Feb-18 04:34N 35°24' E 139°41'1 1.1
2017-Feb-18 03:34N 35°23' E 139°40'0 0.0
2017-Feb-18 02:34N 35°23' E 139°40'2 1.5
2017-Feb-18 01:34N 35°25' E 139°39'3 2.7
2017-Feb-18 00:34N 35°23' E 139°41'0 0.4
2017-Feb-17 23:34N 35°23' E 139°41'3 2.7
2017-Feb-17 22:34N 35°25' E 139°41'1 1.2
2017-Feb-17 21:34N 35°25' E 139°42'3 3.0
2017-Feb-17 20:34N 35°27' E 139°39'0 0.0
2017-Feb-17 19:34N 35°27' E 139°39'0 0.0
2017-Feb-17 18:34N 35°27' E 139°39'0 0.0
2017-Feb-17 17:33N 35°27' E 139°39'0 0.0
2017-Feb-17 16:33N 35°27' E 139°39'0 0.0
2017-Feb-17 15:34N 35°27' E 139°39'0 0.0
2017-Feb-17 14:34N 35°27' E 139°39'0 0.0
2017-Feb-17 13:34N 35°27' E 139°39'0 0.0
2017-Feb-17 12:34N 35°27' E 139°39'0 0.0
2017-Feb-17 11:34N 35°27' E 139°39'0 0.0
2017-Feb-17 10:34N 35°27' E 139°39'0 0.0
2017-Feb-17 09:34N 35°27' E 139°39'0 0.0
2017-Feb-17 08:34N 35°27' E 139°39'0 0.0
2017-Feb-17 07:34N 35°27' E 139°39'0 0.0
2017-Feb-17 06:34N 35°27' E 139°39'0 0.0
2017-Feb-17 05:34N 35°27' E 139°39'0 0.0
2017-Feb-17 04:34N 35°27' E 139°39'0 0.0
2017-Feb-17 03:33N 35°27' E 139°39'0 0.0
2017-Feb-17 02:33N 35°27' E 139°39'0 0.0
2017-Feb-17 01:34N 35°27' E 139°39'0 0.0
2017-Feb-17 00:34N 35°27' E 139°39'2 1.7
2017-Feb-16 23:34N 35°28' E 139°41'4 3.5
2017-Feb-16 22:34N 35°30' E 139°44'4 4.2
2017-Feb-16 21:34N 35°27' E 139°41'1 1.2
2017-Feb-16 20:34N 35°27' E 139°39'0 0.0
2017-Feb-16 19:34N 35°27' E 139°39'0 0.0
2017-Feb-16 18:34N 35°27' E 139°39'0 0.0
2017-Feb-16 17:34N 35°27' E 139°39'0 0.0
2017-Feb-16 16:34N 35°27' E 139°39'0 0.0
2017-Feb-16 15:33N 35°27' E 139°39'0 0.0
2017-Feb-16 14:34N 35°27' E 139°39'0 0.0
2017-Feb-16 13:33N 35°27' E 139°39'0 0.0
2017-Feb-16 12:34N 35°27' E 139°39'0 0.0
2017-Feb-16 11:34N 35°27' E 139°39'0 0.0
2017-Feb-16 10:34N 35°27' E 139°39'4 4.4
2017-Feb-16 09:34N 35°28' E 139°44'1 0.7
2017-Feb-16 08:34N 35°29' E 139°44'2 2.0
2017-Feb-16 07:34N 35°27' E 139°46'2 1.6
2017-Feb-16 06:34N 35°29' E 139°46'1 1.4
2017-Feb-16 05:34N 35°29' E 139°47'0 0.0
2017-Feb-16 04:33N 35°29' E 139°47'1 1.0
2017-Feb-16 03:33N 35°28' E 139°47'3 3.3
2017-Feb-16 02:33N 35°26' E 139°44'4 3.7
2017-Feb-16 01:34N 35°27' E 139°39'0 0.0
2017-Feb-16 00:34N 35°27' E 139°39'2 2.4
2017-Feb-15 23:33N 35°26' E 139°42'2 2.4
2017-Feb-15 22:34N 35°23' E 139°40'4 3.7
2017-Feb-15 21:33N 35°27' E 139°39'0 0.3
2017-Feb-15 20:34N 35°27' E 139°39'0 0.0
2017-Feb-15 19:34N 35°27' E 139°39'0 0.0
2017-Feb-15 18:34N 35°27' E 139°39'0 0.0
2017-Feb-15 17:33N 35°27' E 139°39'0 0.0
2017-Feb-15 16:34N 35°27' E 139°39'0 0.0
2017-Feb-15 15:34N 35°27' E 139°39'0 0.0
2017-Feb-15 14:34N 35°27' E 139°39'0 0.0
2017-Feb-15 13:33N 35°27' E 139°39'0 0.0
2017-Feb-15 12:34N 35°27' E 139°39'0 0.0
2017-Feb-15 11:34N 35°27' E 139°39'0 0.0
2017-Feb-15 10:34N 35°27' E 139°39'0 0.0
2017-Feb-15 09:34N 35°27' E 139°39'0 0.0
2017-Feb-15 08:34N 35°27' E 139°39'0 0.0
2017-Feb-15 07:34N 35°27' E 139°39'0 0.0
2017-Feb-15 06:34N 35°27' E 139°39'  
Track history (hours):
 
Tides and Currents Weather Stations Pressure Air Temp Water Temp Dewpoint Dewpoint Depression Visibility Wind Speed Wind Dir Waves Ship Positions

Kagamaru

Last reported at 2017-Feb-25 06:34 UTC. Time now 2017-Feb-25 07:22 UTC.
Position N 35°27' E 139°39'.

Length 34 m; draft 3.6 m.

Type: Tug. MMSI: 431001272.

Date/timePositionNaut miles runAvg speedWind from/ knotsBaromVisibWave heightAir tempDewpointWater temp
2017-Feb-25 06:34N 35°27' E 139°39'0 0.0
2017-Feb-25 05:34N 35°27' E 139°39'0 0.0
2017-Feb-25 04:34N 35°27' E 139°39'1 1.3
2017-Feb-25 03:33N 35°27' E 139°41'1 1.3
2017-Feb-25 02:34N 35°27' E 139°39'0 0.0
2017-Feb-25 01:34N 35°27' E 139°39'0 0.3
2017-Feb-25 00:34N 35°27' E 139°39'0 0.0
2017-Feb-24 23:34N 35°27' E 139°39'4 3.7
2017-Feb-24 22:34N 35°29' E 139°43'1 1.3
2017-Feb-24 21:34N 35°28' E 139°42'3 2.8
2017-Feb-24 20:34N 35°27' E 139°39'0 0.0
2017-Feb-24 19:34N 35°27' E 139°39'0 0.0
2017-Feb-24 18:33N 35°27' E 139°39'0 0.0
2017-Feb-24 17:34N 35°27' E 139°39'0 0.0
2017-Feb-24 16:34N 35°27' E 139°39'0 0.0
2017-Feb-24 15:34N 35°27' E 139°39'0 0.0
2017-Feb-24 14:34N 35°27' E 139°39'0 0.0
2017-Feb-24 13:34N 35°27' E 139°39'0 0.0
2017-Feb-24 12:34N 35°27' E 139°39'0 0.0
2017-Feb-24 11:34N 35°27' E 139°39'0 0.0
2017-Feb-24 10:34N 35°27' E 139°39'0 0.0
2017-Feb-24 09:34N 35°27' E 139°39'2 1.6
2017-Feb-24 08:34N 35°27' E 139°41'1110.9
2017-Feb-24 07:33N 35°29' E 139°54'2 1.1
2017-Feb-24 05:23N 35°29' E 139°57'4 4.9
2017-Feb-24 04:33N 35°28' E 139°53'7 7.0
2017-Feb-24 03:33N 35°28' E 139°44'0 0.0
2017-Feb-24 02:34N 35°28' E 139°44'2 2.2
2017-Feb-24 01:33N 35°26' E 139°44'5 5.0
2017-Feb-24 00:34N 35°24' E 139°38'3 3.2
2017-Feb-23 23:34N 35°25' E 139°42'3 2.8
2017-Feb-23 22:34N 35°27' E 139°39'0 0.0
2017-Feb-23 21:34N 35°27' E 139°39'0 0.0
2017-Feb-23 20:33N 35°27' E 139°39'0 0.0
2017-Feb-23 19:34N 35°27' E 139°39'0 0.0
2017-Feb-23 18:34N 35°27' E 139°39'0 0.0
2017-Feb-23 17:34N 35°27' E 139°39'0 0.0
2017-Feb-23 16:34N 35°27' E 139°39'0 0.0
2017-Feb-23 15:34N 35°27' E 139°39'0 0.0
2017-Feb-23 14:34N 35°27' E 139°39'0 0.0
2017-Feb-23 13:34N 35°27' E 139°39'0 0.0
2017-Feb-23 12:34N 35°27' E 139°39'0 0.0
2017-Feb-23 11:34N 35°27' E 139°39'0 0.0
2017-Feb-23 10:34N 35°27' E 139°39'6 6.4
2017-Feb-23 09:34N 35°30' E 139°46'0 0.2
2017-Feb-23 08:33N 35°30' E 139°46'0 0.0
2017-Feb-23 07:34N 35°30' E 139°46'1 1.0
2017-Feb-23 06:34N 35°30' E 139°45'4 3.9
2017-Feb-23 05:33N 35°28' E 139°41'2 1.6
2017-Feb-23 04:33N 35°27' E 139°39'0 0.0
2017-Feb-23 03:34N 35°27' E 139°39'0 0.0
2017-Feb-23 02:34N 35°27' E 139°39'0 0.0
2017-Feb-23 01:33N 35°27' E 139°39'0 0.0
2017-Feb-23 00:33N 35°27' E 139°39'0 0.0
2017-Feb-22 23:34N 35°27' E 139°39'0 0.0
2017-Feb-22 22:34N 35°27' E 139°39'0 0.0
2017-Feb-22 21:33N 35°27' E 139°39'0 0.0
2017-Feb-22 20:33N 35°27' E 139°39'0 0.0
2017-Feb-22 19:34N 35°27' E 139°39'0 0.0
2017-Feb-22 18:34N 35°27' E 139°39'0 0.0
2017-Feb-22 17:33N 35°27' E 139°39'0 0.0
2017-Feb-22 16:34N 35°27' E 139°39'0 0.0
2017-Feb-22 15:34N 35°27' E 139°39'0 0.0
2017-Feb-22 14:33N 35°27' E 139°39'0 0.0
2017-Feb-22 13:33N 35°27' E 139°39'0 0.0
2017-Feb-22 12:33N 35°27' E 139°39'0 0.0
2017-Feb-22 11:34N 35°27' E 139°39'0 0.0
2017-Feb-22 10:34N 35°27' E 139°39'0 0.0
2017-Feb-22 09:34N 35°27' E 139°39'0 0.0
2017-Feb-22 08:34N 35°27' E 139°39'0 0.0
2017-Feb-22 07:34N 35°27' E 139°39'0 0.0
2017-Feb-22 06:34N 35°27' E 139°39'0 0.0
2017-Feb-22 05:34N 35°27' E 139°39'0 0.0
2017-Feb-22 04:33N 35°27' E 139°39'0 0.0
2017-Feb-22 03:34N 35°27' E 139°39'0 0.0
2017-Feb-22 02:34N 35°27' E 139°39'0 0.0
2017-Feb-22 01:34N 35°27' E 139°39'0 0.0
2017-Feb-22 00:34N 35°27' E 139°39'1 1.0
2017-Feb-21 23:34N 35°27' E 139°40'2 2.0
2017-Feb-21 22:34N 35°25' E 139°42'0 0.0
2017-Feb-21 21:34N 35°25' E 139°41'2 1.8
2017-Feb-21 20:34N 35°24' E 139°41'0 0.5
2017-Feb-21 19:34N 35°24' E 139°41'1 1.0
2017-Feb-21 18:34N 35°23' E 139°40'0 0.0
2017-Feb-21 17:34N 35°23' E 139°40'0 0.0
2017-Feb-21 16:34N 35°23' E 139°40'0 0.0
2017-Feb-21 15:34N 35°23' E 139°40'0 0.0
2017-Feb-21 14:34N 35°23' E 139°40'0 0.2
2017-Feb-21 13:34N 35°24' E 139°40'3 2.8
2017-Feb-21 12:33N 35°26' E 139°42'0 0.4
2017-Feb-21 11:34N 35°26' E 139°42'1 0.6
2017-Feb-21 10:33N 35°26' E 139°41'0 0.0
2017-Feb-21 09:34N 35°26' E 139°41'2 1.5
2017-Feb-21 08:33N 35°27' E 139°39'2 1.7
2017-Feb-21 07:34N 35°29' E 139°39'4 4.4
2017-Feb-21 06:34N 35°25' E 139°43'3 3.2
2017-Feb-21 05:34N 35°27' E 139°39'0 0.0
2017-Feb-21 04:34N 35°27' E 139°39'0 0.0
2017-Feb-21 03:34N 35°27' E 139°39'1 0.9
2017-Feb-21 02:34N 35°26' E 139°40'1 0.9
2017-Feb-21 01:33N 35°27' E 139°39'0 0.0
2017-Feb-21 00:34N 35°27' E 139°39'1 1.2
2017-Feb-20 23:34N 35°27' E 139°41'3 3.3
2017-Feb-20 22:34N 35°24' E 139°41'1 1.0
2017-Feb-20 21:34N 35°24' E 139°42'3 3.2
2017-Feb-20 20:34N 35°27' E 139°39'0 0.0
2017-Feb-20 19:33N 35°27' E 139°39'0 0.0
2017-Feb-20 18:34N 35°27' E 139°39'0 0.0
2017-Feb-20 17:34N 35°27' E 139°39'0 0.0
2017-Feb-20 16:34N 35°27' E 139°39'0 0.0
2017-Feb-20 15:34N 35°27' E 139°39'0 0.0
2017-Feb-20 14:33N 35°27' E 139°39'0 0.0
2017-Feb-20 13:34N 35°27' E 139°39'0 0.0
2017-Feb-20 12:33N 35°27' E 139°39'0 0.0
2017-Feb-20 11:34N 35°27' E 139°39'0 0.0
2017-Feb-20 10:34N 35°27' E 139°39'0 0.0
2017-Feb-20 09:34N 35°27' E 139°39'0 0.0
2017-Feb-20 08:34N 35°27' E 139°39'0 0.0
2017-Feb-20 07:33N 35°27' E 139°39'0 0.0
2017-Feb-20 06:33N 35°27' E 139°39'0 0.0
2017-Feb-20 05:34N 35°27' E 139°39'0 0.0
2017-Feb-20 04:34N 35°27' E 139°39'0 0.0
2017-Feb-20 03:33N 35°27' E 139°39'0 0.0
2017-Feb-20 02:34N 35°27' E 139°39'0 0.0
2017-Feb-20 01:34N 35°27' E 139°39'5 4.7
2017-Feb-20 00:34N 35°28' E 139°45'2 2.2
2017-Feb-19 23:29N 35°28' E 139°48'5 5.1
2017-Feb-19 22:34N 35°27' E 139°42'2 2.3
2017-Feb-19 21:34N 35°27' E 139°39'0 0.0
2017-Feb-19 20:34N 35°27' E 139°39'0 0.0
2017-Feb-19 19:34N 35°27' E 139°39'0 0.0
2017-Feb-19 18:33N 35°27' E 139°39'0 0.0
2017-Feb-19 17:34N 35°27' E 139°39'0 0.0
2017-Feb-19 16:34N 35°27' E 139°39'0 0.0
2017-Feb-19 15:34N 35°27' E 139°39'0 0.0
2017-Feb-19 14:34N 35°27' E 139°39'0 0.0
2017-Feb-19 13:34N 35°27' E 139°39'0 0.0
2017-Feb-19 12:34N 35°27' E 139°39'0 0.0
2017-Feb-19 11:34N 35°27' E 139°39'0 0.0
2017-Feb-19 10:34N 35°27' E 139°39'0 0.0
2017-Feb-19 09:34N 35°27' E 139°39'0 0.0
2017-Feb-19 08:34N 35°27' E 139°39'0 0.0
2017-Feb-19 07:33N 35°27' E 139°39'0 0.0
2017-Feb-19 06:34N 35°27' E 139°39'0 0.0
2017-Feb-19 05:34N 35°27' E 139°39'0 0.0
2017-Feb-19 04:34N 35°27' E 139°39'0 0.0
2017-Feb-19 03:34N 35°27' E 139°39'0 0.0
2017-Feb-19 02:34N 35°27' E 139°39'0 0.0
2017-Feb-19 01:33N 35°27' E 139°39'0 0.0
2017-Feb-19 00:34N 35°27' E 139°39'0 0.0
2017-Feb-18 23:34N 35°27' E 139°39'2 2.3
2017-Feb-18 22:34N 35°27' E 139°42'1 0.5
2017-Feb-18 21:34N 35°27' E 139°42'0 0.0
2017-Feb-18 20:34N 35°27' E 139°42'1 0.7
2017-Feb-18 19:34N 35°28' E 139°42'1 0.8
2017-Feb-18 18:34N 35°27' E 139°42'1 0.8
2017-Feb-18 17:34N 35°27' E 139°41'1 0.8
2017-Feb-18 16:34N 35°27' E 139°42'0 0.0
2017-Feb-18 15:34N 35°27' E 139°42'1 1.1
2017-Feb-18 14:34N 35°27' E 139°41'1 0.7
2017-Feb-18 13:34N 35°26' E 139°42'0 0.0
2017-Feb-18 12:34N 35°26' E 139°42'1 0.6
2017-Feb-18 11:33N 35°26' E 139°41'1 1.2
2017-Feb-18 10:34N 35°27' E 139°42'1 0.8
2017-Feb-18 09:34N 35°28' E 139°42'1 0.9
2017-Feb-18 08:34N 35°27' E 139°42'3 3.0
2017-Feb-18 07:34N 35°29' E 139°45'1 1.1
2017-Feb-18 06:33N 35°28' E 139°44'5 5.1
2017-Feb-18 05:33N 35°24' E 139°41'1 0.6
2017-Feb-18 04:34N 35°24' E 139°41'1 1.1
2017-Feb-18 03:34N 35°23' E 139°40'0 0.0
2017-Feb-18 02:34N 35°23' E 139°40'2 1.5
2017-Feb-18 01:34N 35°25' E 139°39'3 2.7
2017-Feb-18 00:34N 35°23' E 139°41'0 0.4
2017-Feb-17 23:34N 35°23' E 139°41'3 2.7
2017-Feb-17 22:34N 35°25' E 139°41'1 1.2
2017-Feb-17 21:34N 35°25' E 139°42'3 3.0
2017-Feb-17 20:34N 35°27' E 139°39'0 0.0
2017-Feb-17 19:34N 35°27' E 139°39'0 0.0
2017-Feb-17 18:34N 35°27' E 139°39'0 0.0
2017-Feb-17 17:33N 35°27' E 139°39'0 0.0
2017-Feb-17 16:33N 35°27' E 139°39'0 0.0
2017-Feb-17 15:34N 35°27' E 139°39'0 0.0
2017-Feb-17 14:34N 35°27' E 139°39'0 0.0
2017-Feb-17 13:34N 35°27' E 139°39'0 0.0
2017-Feb-17 12:34N 35°27' E 139°39'0 0.0
2017-Feb-17 11:34N 35°27' E 139°39'0 0.0
2017-Feb-17 10:34N 35°27' E 139°39'0 0.0
2017-Feb-17 09:34N 35°27' E 139°39'0 0.0
2017-Feb-17 08:34N 35°27' E 139°39'0 0.0
2017-Feb-17 07:34N 35°27' E 139°39'0 0.0
2017-Feb-17 06:34N 35°27' E 139°39'0 0.0
2017-Feb-17 05:34N 35°27' E 139°39'0 0.0
2017-Feb-17 04:34N 35°27' E 139°39'0 0.0
2017-Feb-17 03:33N 35°27' E 139°39'0 0.0
2017-Feb-17 02:33N 35°27' E 139°39'0 0.0
2017-Feb-17 01:34N 35°27' E 139°39'0 0.0
2017-Feb-17 00:34N 35°27' E 139°39'2 1.7
2017-Feb-16 23:34N 35°28' E 139°41'4 3.5
2017-Feb-16 22:34N 35°30' E 139°44'4 4.2
2017-Feb-16 21:34N 35°27' E 139°41'1 1.2
2017-Feb-16 20:34N 35°27' E 139°39'0 0.0
2017-Feb-16 19:34N 35°27' E 139°39'0 0.0
2017-Feb-16 18:34N 35°27' E 139°39'0 0.0
2017-Feb-16 17:34N 35°27' E 139°39'0 0.0
2017-Feb-16 16:34N 35°27' E 139°39'0 0.0
2017-Feb-16 15:33N 35°27' E 139°39'0 0.0
2017-Feb-16 14:34N 35°27' E 139°39'0 0.0
2017-Feb-16 13:33N 35°27' E 139°39'0 0.0
2017-Feb-16 12:34N 35°27' E 139°39'0 0.0
2017-Feb-16 11:34N 35°27' E 139°39'0 0.0
2017-Feb-16 10:34N 35°27' E 139°39'4 4.4
2017-Feb-16 09:34N 35°28' E 139°44'1 0.7
2017-Feb-16 08:34N 35°29' E 139°44'2 2.0
2017-Feb-16 07:34N 35°27' E 139°46'2 1.6
2017-Feb-16 06:34N 35°29' E 139°46'1 1.4
2017-Feb-16 05:34N 35°29' E 139°47'0 0.0
2017-Feb-16 04:33N 35°29' E 139°47'1 1.0
2017-Feb-16 03:33N 35°28' E 139°47'3 3.3
2017-Feb-16 02:33N 35°26' E 139°44'4 3.7
2017-Feb-16 01:34N 35°27' E 139°39'0 0.0
2017-Feb-16 00:34N 35°27' E 139°39'2 2.4
2017-Feb-15 23:33N 35°26' E 139°42'2 2.4
2017-Feb-15 22:34N 35°23' E 139°40'4 3.7
2017-Feb-15 21:33N 35°27' E 139°39'0 0.3
2017-Feb-15 20:34N 35°27' E 139°39'0 0.0
2017-Feb-15 19:34N 35°27' E 139°39'0 0.0
2017-Feb-15 18:34N 35°27' E 139°39'0 0.0
2017-Feb-15 17:33N 35°27' E 139°39'0 0.0
2017-Feb-15 16:34N 35°27' E 139°39'0 0.0
2017-Feb-15 15:34N 35°27' E 139°39'0 0.0
2017-Feb-15 14:34N 35°27' E 139°39'0 0.0
2017-Feb-15 13:33N 35°27' E 139°39'0 0.0
2017-Feb-15 12:34N 35°27' E 139°39'0 0.0
2017-Feb-15 11:34N 35°27' E 139°39'0 0.0
2017-Feb-15 10:34N 35°27' E 139°39'0 0.0
2017-Feb-15 09:34N 35°27' E 139°39'0 0.0
2017-Feb-15 08:34N 35°27' E 139°39'0 0.0
2017-Feb-15 07:34N 35°27' E 139°39'0 0.0
2017-Feb-15 06:34N 35°27' E 139°39'  

Dump ship's entire track history